Time;durP1;ratioP1;P1;durP2;ratioP2;P2;SDS_P1;SDS_P2;PMS_P1;PMS_P2;Temp;Humidity;BMP_temperature;BMP_pressure;BME280_temperature;BME280_humidity;BME280_pressure;Samples;Min_cycle;Max_cycle;Signal;HPM_P1;HPM_P2
2022/04/13 00:00:58;;;;;;;13.53;8.17;;;;;;;4.17;51.28;100987.23;1626119;87;21180;-72
2022/04/13 00:03:25;;;;;;;14.53;8.53;;;;;;;4.14;51.72;100993.72;1629131;87;21025;-72
2022/04/13 00:05:52;;;;;;;15.13;8.80;;;;;;;4.07;51.86;100995.88;1629166;87;21060;-71
2022/04/13 00:08:19;;;;;;;15.30;10.07;;;;;;;3.99;52.08;100989.83;1628358;87;21041;-72
2022/04/13 00:10:47;;;;;;;19.00;10.13;;;;;;;3.91;52.21;100992.45;1629443;87;21052;-72
2022/04/13 00:13:15;;;;;;;19.27;9.93;;;;;;;3.83;52.49;100995.47;1632833;87;21573;-72
2022/04/13 00:15:42;;;;;;;19.67;11.27;;;;;;;3.77;52.71;101000.22;1632251;87;21044;-72
2022/04/13 00:18:10;;;;;;;22.13;11.63;;;;;;;3.73;53.01;100993.73;1618412;87;21040;-72
2022/04/13 00:20:37;;;;;;;21.80;11.90;;;;;;;3.67;53.17;100991.14;1625146;87;21513;-72
2022/04/13 00:23:06;;;;;;;23.23;12.33;;;;;;;3.60;53.42;100998.03;1632842;87;21048;-72
2022/04/13 00:25:38;;;;;;;21.50;11.47;;;;;;;3.54;53.73;100994.14;1625580;87;21223;-72
2022/04/13 00:28:04;;;;;;;21.13;10.90;;;;;;;3.46;53.78;100998.45;1627152;87;21513;-73
2022/04/13 00:30:32;;;;;;;18.80;10.33;;;;;;;3.38;53.95;100994.56;1619616;87;21013;-72
2022/04/13 00:32:59;;;;;;;15.60;9.30;;;;;;;3.31;54.13;100997.56;1628104;86;21075;-72
2022/04/13 00:35:26;;;;;;;15.97;9.83;;;;;;;3.27;54.29;100997.53;1622979;87;21534;-72
2022/04/13 00:37:53;;;;;;;16.53;9.23;;;;;;;3.20;54.50;100993.22;1628392;87;21502;-72
2022/04/13 00:40:20;;;;;;;17.10;10.27;;;;;;;3.13;54.82;100993.20;1626694;86;21032;-72
2022/04/13 00:42:47;;;;;;;15.40;8.80;;;;;;;3.07;54.78;100993.16;1627235;87;21230;-72
2022/04/13 00:45:15;;;;;;;16.73;8.67;;;;;;;3.02;54.78;101001.38;1630656;87;21030;-72
2022/04/13 00:47:43;;;;;;;18.17;9.23;;;;;;;2.96;55.04;101002.63;1633615;87;22021;-72
2022/04/13 00:50:11;;;;;;;15.97;7.83;;;;;;;2.94;55.30;100999.59;1627065;87;21318;-72
2022/04/13 00:52:43;;;;;;;17.50;8.90;;;;;;;2.87;55.51;100998.28;1632563;87;21092;-72
2022/04/13 00:55:13;;;;;;;15.70;8.57;;;;;;;2.82;55.62;100995.23;1582401;89;21050;-74
2022/04/13 00:57:42;;;;;;;17.70;8.80;;;;;;;2.79;55.75;100990.91;1628211;87;20999;-72
2022/04/13 01:00:11;;;;;;;14.50;8.37;;;;;;;2.81;55.95;100987.91;1628448;87;21020;-72
2022/04/13 01:02:42;;;;;;;16.47;9.30;;;;;;;2.83;56.13;100983.61;1625243;87;21133;-72
2022/04/13 01:05:10;;;;;;;14.63;8.37;;;;;;;2.82;56.17;100978.41;1628787;87;21076;-72
2022/04/13 01:07:40;;;;;;;17.33;9.37;;;;;;;2.78;56.15;100976.24;1619205;87;21080;-72
2022/04/13 01:10:09;;;;;;;16.82;9.48;;;;;;;2.73;56.35;100973.20;1625919;87;20942;-72
2022/04/13 01:12:37;;;;;;;18.73;9.70;;;;;;;2.73;56.54;100973.20;1625097;87;21053;-73
2022/04/13 01:15:06;;;;;;;17.50;10.00;;;;;;;2.66;56.63;100977.06;1628374;87;21585;-72
2022/04/13 01:17:33;;;;;;;21.40;10.90;;;;;;;2.63;56.83;100975.77;1625443;87;21488;-72
2022/04/13 01:20:05;;;;;;;17.50;9.43;;;;;;;2.63;56.79;100974.47;1647130;86;21043;-72
2022/04/13 01:22:30;;;;;;;17.30;9.23;;;;;;;2.61;56.99;100970.14;1638058;86;21525;-72
2022/04/13 01:24:57;;;;;;;16.43;9.37;;;;;;;2.65;57.34;100969.28;1631492;86;21016;-73
2022/04/13 01:27:26;;;;;;;17.50;9.73;;;;;;;2.69;57.55;100972.33;1636983;86;21133;-72
2022/04/13 01:29:54;;;;;;;16.37;9.50;;;;;;;2.77;57.94;100976.22;1649802;87;21075;-72
2022/04/13 01:32:22;;;;;;;15.83;9.90;;;;;;;2.83;58.14;100969.37;1636168;86;21003;-72
2022/04/13 01:34:53;;;;;;;18.50;10.50;;;;;;;2.86;58.23;100962.91;1637018;86;21047;-72
2022/04/13 01:37:22;;;;;;;17.10;9.37;;;;;;;2.89;58.29;100955.14;1649825;87;21050;-72
2022/04/13 01:39:51;;;;;;;;;;;;;;;2.95;58.57;100961.20;1640546;86;21008;-72
2022/04/13 01:42:21;;;;;;;18.57;9.20;;;;;;;3.02;58.80;100963.83;1636616;86;20566;-72
2022/04/13 01:44:53;;;;;;;17.30;10.10;;;;;;;3.03;58.36;100960.36;1627063;86;21543;-73
2022/04/13 01:47:20;;;;;;;17.23;9.40;;;;;;;2.99;58.30;100961.63;1630090;87;21104;-72
2022/04/13 01:49:47;;;;;;;17.33;9.70;;;;;;;2.95;58.42;100965.09;1628324;87;21028;-73
2022/04/13 01:52:15;;;;;;;16.57;8.87;;;;;;;2.91;58.51;100960.34;1623543;87;21518;-72
2022/04/13 01:54:42;;;;;;;15.80;9.13;;;;;;;2.87;58.50;100966.35;1625262;87;21036;-73
2022/04/13 01:57:09;;;;;;;18.50;9.73;;;;;;;2.79;58.44;100965.02;1625199;87;21060;-72
2022/04/13 01:59:36;;;;;;;18.13;10.60;;;;;;;2.75;58.68;100974.08;1631659;87;21051;-72
2022/04/13 02:02:04;;;;;;;17.23;9.60;;;;;;;2.70;58.69;100968.02;1633138;87;21549;-73
2022/04/13 02:04:32;;;;;;;16.30;9.20;;;;;;;2.63;58.73;100963.22;1627594;87;21219;-72
2022/04/13 02:07:00;;;;;;;15.03;9.50;;;;;;;2.55;58.85;100956.74;1632881;87;21072;-73
2022/04/13 02:09:28;;;;;;;16.57;10.07;;;;;;;2.51;58.99;100961.88;1631035;87;21053;-72
2022/04/13 02:11:55;;;;;;;16.67;10.10;;;;;;;2.45;59.11;100964.02;1633117;86;21103;-72
2022/04/13 02:14:23;;;;;;;19.60;10.37;;;;;;;2.42;59.23;100964.86;1665549;85;21019;-72
2022/04/13 02:16:50;;;;;;;18.40;9.83;;;;;;;2.35;59.36;100967.40;1645922;86;21880;-76
2022/04/13 02:19:18;;;;;;;20.67;11.40;;;;;;;2.30;59.51;100967.39;1655553;86;21058;-72
2022/04/13 02:21:45;;;;;;;21.23;12.17;;;;;;;2.25;59.53;100970.38;1655874;86;21079;-77
2022/04/13 02:24:14;;;;;;;21.90;12.10;;;;;;;2.21;59.71;100977.23;1649266;85;21551;-73
2022/04/13 02:26:41;;;;;;;24.60;12.37;;;;;;;2.20;59.78;100970.33;1649731;85;21051;-72
2022/04/13 02:29:08;;;;;;;19.47;10.70;;;;;;;2.18;59.89;100971.17;1652201;86;21154;-72
2022/04/13 02:31:35;;;;;;;21.13;11.87;;;;;;;2.14;59.97;100972.03;1661557;85;21039;-74
2022/04/13 02:34:04;;;;;;;21.33;12.07;;;;;;;2.06;60.01;100973.27;1648967;85;21046;-72
2022/04/13 02:36:32;;;;;;;18.40;10.90;;;;;;;1.99;60.16;100974.92;1649768;85;21066;-72
2022/04/13 02:39:00;;;;;;;20.13;11.50;;;;;;;1.96;60.43;100968.87;1643275;86;21011;-76
2022/04/13 02:41:27;;;;;;;18.70;11.27;;;;;;;1.96;60.67;100983.95;1636087;86;21070;-72
2022/04/13 02:43:54;;;;;;;21.20;12.10;;;;;;;1.93;60.77;100983.93;1639810;86;20963;-72
2022/04/13 02:46:21;;;;;;;19.10;10.87;;;;;;;1.93;61.19;100994.70;1635063;86;21019;-72
2022/04/13 02:48:48;;;;;;;23.57;11.17;;;;;;;1.95;61.02;100996.88;1628211;87;21550;-72
2022/04/13 02:51:15;;;;;;;18.80;11.20;;;;;;;1.90;61.07;100991.66;1631829;88;21023;-72
2022/04/13 02:53:42;;;;;;;18.43;10.70;;;;;;;1.90;61.36;100991.66;1631834;88;21148;-72
2022/04/13 02:56:10;;;;;;;17.90;10.87;;;;;;;1.87;61.35;100990.35;1637240;87;21076;-72
2022/04/13 02:58:37;;;;;;;15.40;10.27;;;;;;;1.83;61.47;100989.02;1627153;87;21098;-72
2022/04/13 03:01:06;;;;;;;16.57;10.13;;;;;;;1.78;61.52;100988.56;1631270;88;21035;-77
2022/04/13 03:03:33;;;;;;;19.27;10.20;;;;;;;1.75;61.86;100988.54;1630698;87;21644;-72
2022/04/13 03:06:00;;;;;;;19.73;11.60;;;;;;;1.77;61.74;100989.83;1631324;87;21170;-72
2022/04/13 03:08:28;;;;;;;20.90;10.63;;;;;;;1.71;61.74;100986.77;1632586;87;21576;-72
2022/04/13 03:10:55;;;;;;;19.57;10.33;;;;;;;1.68;61.96;100987.17;1630050;87;21046;-72
2022/04/13 03:13:23;;;;;;;17.50;10.40;;;;;;;1.66;62.17;100986.28;1628821;87;21047;-72
2022/04/13 03:15:50;;;;;;;17.43;10.87;;;;;;;1.64;62.02;100990.17;1630622;87;21373;-72
2022/04/13 03:18:17;;;;;;;17.57;10.27;;;;;;;1.59;62.16;100979.35;1627097;87;21995;-72
2022/04/13 03:20:44;;;;;;;20.93;10.50;;;;;;;1.53;62.34;100980.16;1629446;87;21036;-72
2022/04/13 03:23:12;;;;;;;20.07;10.80;;;;;;;1.50;62.42;100979.70;1629296;87;21477;-72
2022/04/13 03:25:39;;;;;;;19.83;11.10;;;;;;;1.51;62.68;100973.67;1630792;87;20971;-72
2022/04/13 03:28:07;;;;;;;18.17;10.73;;;;;;;1.54;63.07;100976.72;1629624;87;21218;-72
2022/04/13 03:30:34;;;;;;;19.70;11.20;;;;;;;1.53;62.95;100982.75;1628761;87;21117;-72
2022/04/13 03:33:02;;;;;;;21.73;11.13;;;;;;;1.55;63.23;100981.91;1628706;87;21020;-72
2022/04/13 03:35:29;;;;;;;18.27;11.63;;;;;;;1.53;63.05;100977.58;1632022;88;21011;-73
2022/04/13 03:37:56;;;;;;;18.93;11.27;;;;;;;1.46;63.15;100983.09;1628384;87;21044;-72
2022/04/13 03:40:23;;;;;;;18.93;11.10;;;;;;;1.43;63.23;100976.61;1627427;87;21020;-72
2022/04/13 03:42:50;;;;;;;20.20;11.10;;;;;;;1.42;63.38;100986.95;1628959;87;21145;-72
2022/04/13 03:45:18;;;;;;;20.27;11.43;;;;;;;1.44;63.70;100979.66;1631886;88;21020;-72
2022/04/13 03:47:45;;;;;;;17.90;11.27;;;;;;;1.44;63.66;100985.22;1629939;87;21494;-72
2022/04/13 03:50:12;;;;;;;22.50;11.40;;;;;;;1.44;63.94;100978.77;1628234;87;21098;-72
2022/04/13 03:52:39;;;;;;;23.43;12.23;;;;;;;1.44;63.94;100981.34;1627121;87;21499;-72
2022/04/13 03:55:09;;;;;;;21.13;12.20;;;;;;;1.43;63.91;100988.67;1627921;87;21923;-73
2022/04/13 03:57:37;;;;;;;16.53;10.97;;;;;;;1.41;64.05;100989.07;1627673;87;21060;-72
2022/04/13 04:00:08;;;;;;;18.90;11.23;;;;;;;1.41;64.21;100983.47;1630139;87;21084;-72
2022/04/13 04:02:43;;;;;;;18.87;11.00;;;;;;;1.39;64.24;100992.09;1629931;87;21103;-72
2022/04/13 04:05:11;;;;;;;24.20;12.03;;;;;;;1.36;64.16;100999.37;1630908;87;21047;-72
2022/04/13 04:07:39;;;;;;;23.03;12.07;;;;;;;1.34;64.30;101007.53;1630818;87;21165;-72
2022/04/13 04:10:09;;;;;;;22.37;12.93;;;;;;;1.33;64.40;101001.50;1631934;87;20940;-72
2022/04/13 04:12:40;;;;;;;20.60;12.60;;;;;;;1.31;64.45;100999.32;1627546;87;21074;-72
2022/04/13 04:15:10;;;;;;;20.80;13.37;;;;;;;1.33;64.68;101010.94;1628138;87;21395;-71
2022/04/13 04:17:37;;;;;;;19.80;12.80;;;;;;;1.32;64.77;101004.91;1637818;86;21046;-72
2022/04/13 04:20:10;;;;;;;26.13;16.27;;;;;;;1.34;64.80;101008.82;1631193;87;21821;-72
2022/04/13 04:22:35;;;;;;;35.73;22.93;;;;;;;1.37;65.17;101007.56;1628250;87;21044;-72
2022/04/13 04:25:05;;;;;;;41.63;26.17;;;;;;;1.40;65.17;101010.16;1599431;87;21088;-72
2022/04/13 04:27:32;;;;;;;41.20;23.97;;;;;;;1.40;65.17;101014.04;1609375;88;20988;-72
2022/04/13 04:29:59;;;;;;;27.63;17.27;;;;;;;1.42;65.24;101012.78;1601758;88;21090;-72
2022/04/13 04:32:27;;;;;;;25.30;15.63;;;;;;;1.42;65.30;101016.66;1589116;89;21140;-72
2022/04/13 04:34:55;;;;;;;25.47;15.63;;;;;;;1.45;65.49;101008.50;1597841;89;21589;-72
2022/04/13 04:37:22;;;;;;;25.43;15.33;;;;;;;1.51;65.65;101005.11;1602032;88;21039;-72
2022/04/13 04:39:49;;;;;;;25.90;15.90;;;;;;;1.51;65.60;101008.55;1602627;88;21487;-72
2022/04/13 04:42:16;;;;;;;22.97;14.47;;;;;;;1.53;65.73;101004.70;1604679;89;21099;-72
2022/04/13 04:44:43;;;;;;;22.27;14.13;;;;;;;1.59;65.83;101007.34;1607285;88;21160;-72
2022/04/13 04:47:10;;;;;;;21.97;13.77;;;;;;;1.63;66.01;100998.75;1606155;89;21034;-72
2022/04/13 04:49:37;;;;;;;20.67;13.50;;;;;;;1.68;66.14;101005.27;1610784;88;21053;-73
2022/04/13 04:52:05;;;;;;;21.97;14.37;;;;;;;1.74;66.31;100998.42;1607982;88;21103;-74
2022/04/13 04:54:32;;;;;;;19.90;13.27;;;;;;;1.85;66.50;100993.34;1603234;89;21060;-72
2022/04/13 04:56:59;;;;;;;25.73;14.93;;;;;;;1.96;66.68;100999.46;1602032;89;21118;-72
2022/04/13 04:59:25;;;;;;;27.20;15.43;;;;;;;2.07;66.72;100992.22;1602780;89;21016;-72
2022/04/13 05:01:52;;;;;;;26.07;15.67;;;;;;;2.18;66.90;100997.91;1603239;89;21074;-72
2022/04/13 05:04:20;;;;;;;23.70;14.93;;;;;;;2.30;66.94;100999.73;1603567;89;21035;-72
2022/04/13 05:06:47;;;;;;;24.50;15.70;;;;;;;2.42;66.81;100998.49;1604865;87;21102;-72
2022/04/13 05:09:17;;;;;;;25.70;15.80;;;;;;;2.57;66.95;101000.73;1605314;87;22130;-72
2022/04/13 05:11:43;;;;;;;22.57;15.80;;;;;;;2.69;66.89;101004.69;1602981;87;21051;-72
2022/04/13 05:14:10;;;;;;;28.27;15.00;;;;;;;2.83;66.73;101004.75;1605326;89;21102;-74
2022/04/13 05:16:37;;;;;;;22.50;14.60;;;;;;;2.95;66.53;101009.97;1605447;89;21067;-76
2022/04/13 05:19:04;;;;;;;28.07;15.87;;;;;;;3.08;66.43;101005.27;1605371;89;21582;-72
2022/04/13 05:21:31;;;;;;;24.90;16.07;;;;;;;3.23;66.25;101004.88;1619591;87;21127;-75
2022/04/13 05:23:58;;;;;;;24.43;16.20;;;;;;;3.44;66.41;101006.23;1600852;88;21027;-73
2022/04/13 05:26:24;;;;;;;24.03;16.13;;;;;;;3.62;66.26;101007.98;1604529;89;21062;-72
2022/04/13 05:28:51;;;;;;;25.03;14.83;;;;;;;3.79;65.90;101006.25;1610200;87;21026;-72
2022/04/13 05:31:18;;;;;;;26.07;16.10;;;;;;;3.96;65.69;101008.88;1603231;87;21137;-73
2022/04/13 05:33:45;;;;;;;26.70;16.43;;;;;;;4.13;65.56;101004.08;1606014;87;22067;-75
2022/04/13 05:36:13;;;;;;;28.37;15.93;;;;;;;4.31;65.77;101007.11;1609150;87;21580;-75
2022/04/13 05:38:40;;;;;;;26.73;16.30;;;;;;;4.48;65.55;101005.33;1612471;87;21038;-74
2022/04/13 05:41:07;;;;;;;26.33;16.00;;;;;;;4.64;65.21;101009.62;1579176;87;21105;-76
2022/04/13 05:43:35;;;;;;;24.17;16.50;;;;;;;4.80;65.05;101011.74;1644004;84;21085;-76
2022/04/13 05:46:03;;;;;;;28.13;17.03;;;;;;;4.96;64.73;101003.88;1645336;86;21171;-72
2022/04/13 05:48:30;;;;;;;28.43;16.63;;;;;;;5.11;64.68;101006.41;1653030;85;21044;-74
2022/04/13 05:50:59;;;;;;;25.63;16.50;;;;;;;5.27;64.13;101007.20;1634997;86;21056;-72
2022/04/13 05:53:26;;;;;;;26.27;16.67;;;;;;;5.42;63.88;101008.84;1633892;86;21008;-73
2022/04/13 05:55:56;;;;;;;28.73;17.43;;;;;;;5.58;63.52;101011.77;1635883;86;21021;-75
2022/04/13 05:58:25;;;;;;;26.33;17.17;;;;;;;5.74;63.29;101015.14;1631702;85;21763;-74
2022/04/13 06:00:53;;;;;;;25.12;17.00;;;;;;;5.89;63.03;101011.55;1645729;86;21015;-73
2022/04/13 06:03:20;;;;;;;25.30;17.77;;;;;;;6.02;62.68;101015.38;1646013;86;21635;-71
2022/04/13 06:05:48;;;;;;;23.60;16.27;;;;;;;6.15;62.50;101013.53;1623949;86;21035;-72
2022/04/13 06:08:15;;;;;;;25.20;17.33;;;;;;;6.31;62.31;101013.37;1639774;86;21706;-72
2022/04/13 06:10:42;;;;;;;24.07;17.00;;;;;;;6.45;61.92;101010.19;1652672;84;21086;-72
2022/04/13 06:13:09;;;;;;;26.63;18.17;;;;;;;6.60;61.71;101017.00;1653157;85;21594;-72
2022/04/13 06:15:35;;;;;;;26.00;17.53;;;;;;;6.75;61.48;101015.51;1647042;85;21079;-72
2022/04/13 06:18:04;;;;;;;29.87;18.60;;;;;;;6.88;61.20;101015.80;1653198;86;21015;-71
2022/04/13 06:20:30;;;;;;;27.63;17.13;;;;;;;7.02;60.80;101018.68;1659492;85;21067;-72
2022/04/13 06:22:57;;;;;;;28.17;17.67;;;;;;;7.17;60.59;101020.22;1657510;85;21801;-72
2022/04/13 06:25:24;;;;;;;28.33;18.17;;;;;;;7.30;60.22;101020.48;1653619;85;21454;-73
2022/04/13 06:27:51;;;;;;;28.67;18.33;;;;;;;7.43;60.00;101019.84;1639069;86;20993;-74
2022/04/13 06:30:19;;;;;;;26.27;17.90;;;;;;;7.54;59.78;101024.05;1638656;84;21066;-75
2022/04/13 06:32:46;;;;;;;31.23;17.63;;;;;;;7.67;59.44;101024.72;1645621;84;21024;-74
2022/04/13 06:35:16;;;;;;;27.83;17.23;;;;;;;7.79;59.20;101027.16;1650335;84;21190;-78
2022/04/13 06:37:46;;;;;;;26.80;17.62;;;;;;;7.95;58.96;101032.11;1653121;85;21561;-74
2022/04/13 06:40:14;;;;;;;25.37;17.12;;;;;;;8.07;58.54;101028.02;1645027;86;21051;-75
2022/04/13 06:42:41;;;;;;;26.87;17.50;;;;;;;8.17;58.30;101030.02;1640527;86;21002;-75
2022/04/13 06:45:12;;;;;;;26.23;16.77;;;;;;;8.30;58.03;101029.37;1657909;84;21094;-75
2022/04/13 06:47:39;;;;;;;24.90;16.37;;;;;;;8.48;58.00;101033.00;1635144;86;21211;-74
2022/04/13 06:50:09;;;;;;;27.27;17.40;;;;;;;8.64;57.70;101021.34;1627725;86;21111;-74
2022/04/13 06:52:42;;;;;;;22.93;16.37;;;;;;;8.81;57.22;101024.08;1646332;85;21612;-73
2022/04/13 06:55:11;;;;;;;27.50;16.53;;;;;;;8.96;56.87;101027.71;1623005;86;21343;-75
2022/04/13 06:57:39;;;;;;;23.90;16.33;;;;;;;9.11;56.76;101027.37;1637771;87;21632;-75
2022/04/13 07:00:10;;;;;;;25.63;17.37;;;;;;;9.28;56.68;101028.77;1629118;86;21205;-75
2022/04/13 07:02:37;;;;;;;24.73;16.20;;;;;;;9.46;56.36;101028.84;1644966;86;21083;-72
2022/04/13 07:05:06;;;;;;;27.47;14.73;;;;;;;9.63;56.03;101030.61;1645066;86;21028;-73
2022/04/13 07:07:32;;;;;;;25.10;15.47;;;;;;;9.78;55.44;101034.63;1626492;86;21048;-73
2022/04/13 07:10:00;;;;;;;20.77;13.97;;;;;;;9.91;54.75;101028.66;1622665;86;21072;-72
2022/04/13 07:12:35;;;;;;;22.23;14.40;;;;;;;10.02;54.43;101028.80;1641399;86;21135;-73
2022/04/13 07:15:04;;;;;;;21.17;14.03;;;;;;;10.19;54.42;101037.54;1636484;86;21533;-77
2022/04/13 07:17:31;;;;;;;23.83;14.77;;;;;;;10.34;53.72;101030.25;1615824;87;21020;-72
2022/04/13 07:19:58;;;;;;;20.73;14.50;;;;;;;10.46;53.21;101027.30;1591136;88;21128;-72
2022/04/13 07:22:25;;;;;;;21.17;13.87;;;;;;;10.55;52.88;101035.36;1620651;87;21084;-72
2022/04/13 07:24:52;;;;;;;18.27;12.80;;;;;;;10.62;52.62;101024.67;1621482;86;21735;-72
2022/04/13 07:27:19;;;;;;;21.53;12.57;;;;;;;10.72;52.57;101021.33;1631480;87;21555;-71
2022/04/13 07:29:46;;;;;;;19.13;12.63;;;;;;;10.91;52.46;101026.47;1633369;87;21315;-73
2022/04/13 07:32:13;;;;;;;18.80;13.07;;;;;;;11.08;51.96;101035.16;1617790;87;21478;-74
2022/04/13 07:34:40;;;;;;;19.57;11.87;;;;;;;11.21;51.49;101030.89;1628471;87;21060;-77
2022/04/13 07:37:07;;;;;;;17.47;11.90;;;;;;;11.32;51.06;101026.17;1615606;88;21487;-74
2022/04/13 07:39:34;;;;;;;18.30;11.13;;;;;;;11.41;50.65;101030.28;1609398;87;21636;-72
2022/04/13 07:42:02;;;;;;;18.50;11.10;;;;;;;11.53;50.68;101025.98;1615208;85;21549;-76
2022/04/13 07:44:29;;;;;;;15.73;11.20;;;;;;;11.70;50.39;101026.31;1634679;85;21602;-76
2022/04/13 07:46:56;;;;;;;17.27;11.03;;;;;;;11.84;50.09;101023.24;1633658;85;21320;-75
2022/04/13 07:49:24;;;;;;;16.20;10.77;;;;;;;11.99;49.56;101019.28;1643691;86;22037;-73
2022/04/13 07:51:51;;;;;;;13.55;9.75;;;;;;;12.10;49.41;101026.81;1660423;86;21012;-72
2022/04/13 07:54:18;;;;;;;16.10;10.05;;;;;;;12.19;49.10;101022.12;1654703;86;21079;-73
2022/04/13 07:56:45;;;;;;;14.57;9.63;;;;;;;12.34;48.59;101031.70;1648002;84;21107;-72
2022/04/13 07:59:12;;;;;;;15.27;9.73;;;;;;;12.49;48.61;101018.86;1659766;84;21060;-72
2022/04/13 08:01:39;;;;;;;14.68;9.10;;;;;;;12.66;48.12;101016.09;1625054;86;21157;-72
2022/04/13 08:04:07;;;;;;;13.98;7.97;;;;;;;12.81;47.83;101024.77;1600899;89;21176;-72
2022/04/13 08:06:34;;;;;;;12.63;8.38;;;;;;;12.95;47.28;101030.84;1638897;85;21108;-75
2022/04/13 08:09:01;;;;;;;11.40;7.60;;;;;;;13.06;46.61;101017.28;1655484;86;20967;-72
2022/04/13 08:11:28;;;;;;;14.53;8.53;;;;;;;13.15;46.37;101023.51;1646880;85;22059;-71
2022/04/13 08:13:55;;;;;;;12.15;8.80;;;;;;;13.27;46.36;101016.48;1656873;85;21234;-72
2022/04/13 08:16:21;;;;;;;14.13;8.48;;;;;;;13.41;46.01;101013.31;1663039;85;21225;-73
2022/04/13 08:18:48;;;;;;;12.82;9.48;;;;;;;13.55;45.77;101011.45;1652011;85;21531;-74
2022/04/13 08:21:15;;;;;;;14.15;8.38;;;;;;;13.71;45.68;101012.56;1647052;85;21020;-73
2022/04/13 08:23:42;;;;;;;13.70;8.28;;;;;;;13.87;45.26;101015.44;1636389;86;21226;-73
2022/04/13 08:26:09;;;;;;;17.30;9.15;;;;;;;14.00;44.79;101010.07;1642327;85;21208;-72
2022/04/13 08:28:36;;;;;;;14.05;9.05;;;;;;;14.14;44.68;101009.96;1642973;85;21023;-73
2022/04/13 08:31:04;;;;;;;14.33;9.30;;;;;;;14.29;44.44;101017.20;1652285;84;21039;-74
2022/04/13 08:33:32;;;;;;;11.80;8.23;;;;;;;14.40;44.22;101008.37;1652932;85;21039;-73
2022/04/13 08:35:59;;;;;;;14.78;8.95;;;;;;;14.56;43.76;101007.75;1651402;85;21565;-73
2022/04/13 08:38:26;;;;;;;11.55;7.92;;;;;;;14.67;43.49;101005.48;1656934;85;21572;-73
2022/04/13 08:41:02;;;;;;;13.78;9.13;;;;;;;14.76;43.20;101007.71;1651482;85;21580;-74
2022/04/13 08:43:58;;;;;;;13.32;8.80;;;;;;;14.87;42.87;101013.36;1654549;86;21063;-73
2022/04/13 08:46:27;;;;;;;16.55;8.63;;;;;;;15.02;42.59;101007.87;1651083;86;20996;-73
2022/04/13 08:48:56;;;;;;;11.85;8.30;;;;;;;15.16;41.99;101012.52;1660779;86;21459;-72
2022/04/13 08:51:25;;;;;;;14.07;8.45;;;;;;;15.28;41.76;101008.44;1646124;86;21166;-72
2022/04/13 08:54:06;;;;;;;13.48;8.35;;;;;;;15.40;41.50;101004.73;1654012;86;21051;-74
2022/04/13 08:56:35;;;;;;;10.63;7.83;;;;;;;15.62;41.62;101002.39;1654890;86;21457;-72
2022/04/13 08:59:36;;;;;;;12.37;8.75;;;;;;;15.77;41.17;100996.41;1621633;87;21081;-79
2022/04/13 09:02:23;;;;;;;11.50;7.60;;;;;;;15.87;40.83;100996.79;1585005;87;21063;-73
2022/04/13 09:04:53;;;;;;;11.95;8.13;;;;;;;15.99;40.55;100997.95;1621539;88;21156;-74
2022/04/13 09:07:20;;;;;;;11.15;7.53;;;;;;;16.12;40.23;101000.85;1617971;87;21599;-74
2022/04/13 09:09:49;;;;;;;13.80;8.63;;;;;;;16.23;40.03;101005.98;1618618;87;21109;-74
2022/04/13 09:12:18;;;;;;;12.25;7.95;;;;;;;16.30;39.31;101002.58;1642195;86;21039;-74
2022/04/13 09:14:46;;;;;;;13.20;8.13;;;;;;;16.39;39.08;100998.12;1660098;86;21165;-74
2022/04/13 09:17:12;;;;;;;11.97;7.92;;;;;;;16.49;38.87;100997.19;1659067;86;21092;-72
2022/04/13 09:19:40;;;;;;;11.30;7.53;;;;;;;16.53;38.65;100994.76;1646269;85;20901;-73
2022/04/13 09:22:09;;;;;;;15.55;8.63;;;;;;;16.60;38.60;100996.16;1644360;86;21007;-73
2022/04/13 09:24:39;;;;;;;12.80;8.60;;;;;;;16.75;38.50;101000.25;1654230;86;21643;-74
2022/04/13 09:27:07;;;;;;;13.85;8.55;;;;;;;16.84;38.00;101008.58;1615401;87;21184;-75
2022/04/13 09:29:35;;;;;;;11.15;7.92;;;;;;;16.93;37.84;101008.10;1644754;85;21493;-75
2022/04/13 09:32:02;;;;;;;12.53;7.83;;;;;;;16.98;37.08;101014.92;1651249;86;21091;-74
2022/04/13 09:34:29;;;;;;;13.05;8.18;;;;;;;17.02;36.91;101011.19;1648274;85;21078;-74
2022/04/13 09:36:57;;;;;;;11.83;8.18;;;;;;;17.16;36.75;101003.34;1659133;86;20935;-75
2022/04/13 09:39:25;;;;;;;12.03;7.70;;;;;;;17.31;36.67;101004.28;1656443;86;21563;-74
2022/04/13 09:41:52;;;;;;;11.65;8.30;;;;;;;17.47;36.18;101009.59;1656902;86;21192;-74
2022/04/13 09:44:21;;;;;;;14.30;8.55;;;;;;;17.51;36.00;101002.69;1644235;85;21034;-75
2022/04/13 09:46:49;;;;;;;14.83;8.83;;;;;;;17.70;36.12;101004.30;1652262;85;21042;-74
2022/04/13 09:49:21;;;;;;;13.75;8.60;;;;;;;17.81;35.71;100997.94;1633889;86;21007;-76
2022/04/13 09:51:50;;;;;;;11.78;7.92;;;;;;;17.92;35.66;100990.69;1659485;85;21087;-74
2022/04/13 09:54:19;;;;;;;12.47;7.67;;;;;;;18.09;35.41;100997.66;1653825;84;21210;-75
2022/04/13 09:56:47;;;;;;;11.40;8.10;;;;;;;18.19;35.08;100990.39;1631127;86;21078;-75
2022/04/13 09:59:31;;;;;;;11.15;7.37;;;;;;;18.33;34.92;100984.74;1657502;86;21102;-75
2022/04/13 10:02:01;;;;;;;12.33;8.28;;;;;;;18.46;34.44;100989.70;1642270;86;21078;-75
2022/04/13 10:04:30;;;;;;;10.48;7.92;;;;;;;18.52;34.14;100991.97;1643695;86;21047;-75
2022/04/13 10:07:17;;;;;;;11.33;7.85;;;;;;;18.69;34.20;100982.97;1649935;86;21095;-74
2022/04/13 10:09:44;;;;;;;16.80;8.65;;;;;;;18.92;34.25;100981.08;1642909;86;21437;-74
2022/04/13 10:12:11;;;;;;;13.83;8.93;;;;;;;19.23;34.03;100979.13;1662732;85;21036;-75
2022/04/13 10:14:39;;;;;;;13.22;8.53;;;;;;;19.40;33.53;100982.06;1669171;85;21042;-75
2022/04/13 10:17:09;;;;;;;12.00;8.28;;;;;;;19.52;33.34;100974.61;1652610;85;21281;-76
2022/04/13 10:19:37;;;;;;;13.70;7.92;;;;;;;19.69;33.35;100981.51;1666597;85;21127;-78
2022/04/13 10:22:04;;;;;;;14.70;9.05;;;;;;;19.83;32.85;100977.45;1664022;84;21579;-76
2022/04/13 10:24:34;;;;;;;12.25;8.23;;;;;;;20.00;32.98;100976.31;1659904;85;21046;-77
2022/04/13 10:27:08;;;;;;;11.53;8.60;;;;;;;20.21;32.89;100972.69;1657549;85;21024;-77
2022/04/13 10:29:41;;;;;;;12.55;8.75;;;;;;;20.35;32.57;100975.73;1628021;86;21258;-77
2022/04/13 10:32:13;;;;;;;11.80;7.58;;;;;;;20.50;32.39;100969.81;1618213;86;21354;-76
2022/04/13 10:34:46;;;;;;;14.55;8.18;;;;;;;20.78;32.32;100971.42;1638827;86;21024;-77
2022/04/13 10:37:16;;;;;;;10.65;8.13;;;;;;;20.89;31.72;100977.33;1629654;86;21047;-77
2022/04/13 10:39:47;;;;;;;10.72;8.90;;;;;;;21.05;31.65;100967.77;1654912;85;21060;-77
2022/04/13 10:42:18;;;;;;;10.20;7.85;;;;;;;21.07;31.57;100958.70;1651078;85;21054;-76
2022/04/13 10:45:07;;;;;;;9.75;7.62;;;;;;;21.12;31.22;100956.56;1651888;86;21058;-75
2022/04/13 10:47:41;;;;;;;;;;;;;;;21.21;30.85;100966.18;1653477;84;21035;-76
2022/04/13 10:50:11;;;;;;;7.92;6.37;;;;;;;21.27;30.18;100967.06;1639824;85;20178;-76
2022/04/13 10:53:00;;;;;;;10.50;6.83;;;;;;;21.38;30.56;100962.67;1649712;86;21066;-75
2022/04/13 10:55:30;;;;;;;8.70;6.40;;;;;;;21.50;30.41;100968.06;1664466;85;21038;-77
2022/04/13 10:58:20;;;;;;;8.55;6.12;;;;;;;21.62;29.97;100959.17;1662619;86;22255;-79
2022/04/13 11:00:51;;;;;;;9.18;6.72;;;;;;;21.73;30.00;100949.88;1662289;86;20987;-77
2022/04/13 11:03:21;;;;;;;10.03;7.37;;;;;;;21.81;29.84;100954.64;1661202;85;21031;-76
2022/04/13 11:05:48;;;;;;;9.63;7.58;;;;;;;21.96;29.74;100952.63;1648134;86;21077;-75
2022/04/13 11:08:21;;;;;;;10.63;8.03;;;;;;;22.09;29.58;100956.52;1649542;86;21484;-79
2022/04/13 11:10:49;;;;;;;9.73;7.42;;;;;;;22.27;29.31;100947.98;1624094;86;21460;-83
2022/04/13 11:13:19;;;;;;;10.40;8.57;;;;;;;22.48;28.86;100951.30;1622006;87;21106;-77
2022/04/13 11:15:49;;;;;;;12.80;7.85;;;;;;;22.54;28.87;100950.81;1635825;86;21058;-77
2022/04/13 11:18:20;;;;;;;10.35;8.50;;;;;;;22.64;28.85;100953.13;1620714;86;21528;-78
2022/04/13 11:21:07;;;;;;;11.43;8.13;;;;;;;22.82;29.03;100951.30;1605053;89;21077;-76
2022/04/13 11:23:54;;;;;;;11.68;8.63;;;;;;;22.99;28.60;100954.83;1611497;88;21086;-77
2022/04/13 11:26:41;;;;;;;10.00;8.20;;;;;;;23.11;28.21;100948.97;1639128;86;21051;-77